createdAt,value
2022-11-24T00:01:26.714Z,9.00
2022-11-24T00:03:58.407Z,6.00
2022-11-24T00:06:27.489Z,7.25
2022-11-24T00:08:56.671Z,7.00
2022-11-24T00:11:30.498Z,8.00
2022-11-24T00:14:00.259Z,7.75
2022-11-24T00:16:31.485Z,7.50
2022-11-24T00:19:01.530Z,7.75
2022-11-24T00:21:31.608Z,5.75
2022-11-24T00:24:00.507Z,8.25
2022-11-24T00:26:31.592Z,6.75
2022-11-24T00:29:06.391Z,7.75
2022-11-24T00:31:39.426Z,9.00
2022-11-24T00:34:11.935Z,8.00
2022-11-24T00:36:41.191Z,7.25
2022-11-24T00:39:13.835Z,7.50
2022-11-24T00:41:42.874Z,8.50
2022-11-24T00:44:11.502Z,6.50
2022-11-24T00:46:40.062Z,6.50
2022-11-24T00:49:08.637Z,6.00
2022-11-24T00:51:37.011Z,7.00
2022-11-24T00:54:05.374Z,6.00
2022-11-24T00:56:34.480Z,7.00
2022-11-24T00:59:02.911Z,5.00
2022-11-24T01:01:34.426Z,7.25
2022-11-24T01:04:03.102Z,6.75
2022-11-24T01:06:33.485Z,6.00
2022-11-24T01:09:01.887Z,7.50
2022-11-24T01:11:53.100Z,6.50
2022-11-24T01:14:23.402Z,7.50
2022-11-24T01:16:52.619Z,6.25
2022-11-24T01:19:21.219Z,7.50
2022-11-24T01:21:50.182Z,6.00
2022-11-24T01:24:18.665Z,7.75
2022-11-24T01:26:47.401Z,6.00
2022-11-24T01:29:15.834Z,6.25
2022-11-24T01:31:44.198Z,8.00
2022-11-24T01:34:13.957Z,7.50
2022-11-24T01:36:42.347Z,8.00
2022-11-24T01:39:10.711Z,7.00
2022-11-24T01:41:39.067Z,7.75
2022-11-24T01:44:29.200Z,7.00
2022-11-24T01:47:31.102Z,8.00
2022-11-24T01:50:02.345Z,6.00
2022-11-24T01:52:35.338Z,8.00
2022-11-24T01:55:10.188Z,9.00
2022-11-24T01:57:45.429Z,6.25
2022-11-24T02:00:16.002Z,8.75
2022-11-24T02:02:46.139Z,7.50
2022-11-24T02:05:26.705Z,5.25
2022-11-24T02:07:57.299Z,6.00
2022-11-24T02:10:25.780Z,6.00
2022-11-24T02:12:57.371Z,7.00
2022-11-24T02:15:25.835Z,5.75
2022-11-24T02:17:54.270Z,5.00
2022-11-24T02:20:22.734Z,4.00
2022-11-24T02:23:44.583Z,4.50
2022-11-24T02:26:45.372Z,4.50
2022-11-24T02:29:15.432Z,5.25
2022-11-24T02:31:52.711Z,5.00
2022-11-24T02:34:21.506Z,3.75
2022-11-24T02:36:49.819Z,4.00
2022-11-24T02:39:18.244Z,4.00
2022-11-24T02:41:55.075Z,3.75
2022-11-24T02:44:28.824Z,3.75
2022-11-24T02:47:07.963Z,4.00
2022-11-24T02:49:36.627Z,3.25
2022-11-24T02:52:05.296Z,2.50
2022-11-24T02:54:34.012Z,3.00
2022-11-24T02:57:03.038Z,2.00
2022-11-24T02:59:31.444Z,3.00
2022-11-24T03:02:00.007Z,3.25
2022-11-24T03:04:28.509Z,3.00
2022-11-24T03:06:58.610Z,2.25
2022-11-24T03:09:27.019Z,3.00
2022-11-24T03:11:55.343Z,3.00
2022-11-24T03:14:23.666Z,1.75
2022-11-24T03:16:52.075Z,2.00
2022-11-24T03:19:20.394Z,2.00
2022-11-24T03:21:48.717Z,2.50
2022-11-24T03:24:17.062Z,3.00
2022-11-24T03:26:45.402Z,3.25
2022-11-24T03:29:13.760Z,2.00
2022-11-24T03:31:42.257Z,2.00
2022-11-24T03:34:10.798Z,3.00
2022-11-24T03:36:39.160Z,2.25
2022-11-24T03:39:08.139Z,3.00
2022-11-24T03:41:36.571Z,1.00
2022-11-24T03:44:05.134Z,1.75
2022-11-24T03:46:33.652Z,2.00
2022-11-24T03:49:02.144Z,2.00
2022-11-24T03:51:30.506Z,2.00
2022-11-24T03:53:58.867Z,2.25
2022-11-24T03:56:27.185Z,2.75
2022-11-24T03:58:55.560Z,2.00
2022-11-24T04:01:23.971Z,2.00
2022-11-24T04:03:52.378Z,2.25
2022-11-24T04:06:20.741Z,3.00
2022-11-24T04:08:49.129Z,3.00
2022-11-24T04:11:35.691Z,2.75
2022-11-24T04:14:05.758Z,4.00
2022-11-24T04:16:37.991Z,3.00
2022-11-24T04:19:07.468Z,3.00
2022-11-24T04:21:35.844Z,4.00
2022-11-24T04:24:04.157Z,3.00
2022-11-24T04:26:32.452Z,2.00
2022-11-24T04:29:00.746Z,2.00
2022-11-24T04:31:29.092Z,2.00
2022-11-24T04:33:57.523Z,4.00
2022-11-24T04:36:25.878Z,3.00
2022-11-24T04:39:23.539Z,3.75
2022-11-24T04:41:43.597Z,3.00
2022-11-24T04:44:11.888Z,2.50
2022-11-24T04:46:40.244Z,3.00
2022-11-24T04:49:12.525Z,3.00
2022-11-24T04:51:41.777Z,3.00
2022-11-24T04:54:12.372Z,1.25
2022-11-24T04:56:41.918Z,2.00
2022-11-24T04:59:15.527Z,1.25
2022-11-24T05:01:45.005Z,1.75
2022-11-24T05:04:15.218Z,1.50
2022-11-24T05:06:43.596Z,3.00
2022-11-24T05:09:16.948Z,2.00
2022-11-24T05:11:45.533Z,1.50
2022-11-24T05:14:13.888Z,2.00
2022-11-24T05:16:42.213Z,2.00
2022-11-24T05:19:10.694Z,2.00
2022-11-24T05:21:39.001Z,2.50
2022-11-24T05:24:07.597Z,3.00
2022-11-24T05:26:36.626Z,2.50
2022-11-24T05:29:05.200Z,2.75
2022-11-24T05:31:33.568Z,3.50
2022-11-24T05:34:01.942Z,3.00
2022-11-24T05:36:48.642Z,3.00
2022-11-24T05:39:16.946Z,3.00
2022-11-24T05:41:45.242Z,3.50
2022-11-24T05:44:13.646Z,2.75
2022-11-24T05:46:41.984Z,3.25
2022-11-24T05:49:10.402Z,2.00
2022-11-24T05:51:38.677Z,3.00
2022-11-24T05:54:07.111Z,3.25
2022-11-24T05:56:35.405Z,3.00
2022-11-24T05:59:09.484Z,4.00
2022-11-24T06:01:38.421Z,3.00
2022-11-24T06:04:06.864Z,4.00
2022-11-24T06:06:35.139Z,2.00
2022-11-24T06:09:03.495Z,4.00
2022-11-24T06:11:32.177Z,2.75
2022-11-24T06:14:00.542Z,3.00
2022-11-24T06:16:29.052Z,3.50
2022-11-24T06:18:57.420Z,5.00
2022-11-24T06:21:25.712Z,3.00
2022-11-24T06:23:54.026Z,2.00
2022-11-24T06:26:22.321Z,3.25
2022-11-24T06:28:50.663Z,4.00
2022-11-24T06:31:19.030Z,3.00
2022-11-24T06:33:47.873Z,3.25
2022-11-24T06:36:16.718Z,3.00
2022-11-24T06:38:45.121Z,3.50
2022-11-24T06:41:16.044Z,3.00
2022-11-24T06:43:44.407Z,3.75
2022-11-24T06:46:13.771Z,3.00
2022-11-24T06:48:42.115Z,2.00
2022-11-24T06:51:16.461Z,2.50
2022-11-24T06:53:44.962Z,2.50
2022-11-24T06:56:16.864Z,3.75
2022-11-24T06:58:48.423Z,3.25
2022-11-24T07:01:18.444Z,3.25
2022-11-24T07:03:47.483Z,4.25
2022-11-24T07:06:17.086Z,3.00
2022-11-24T07:08:45.939Z,3.25
2022-11-24T07:11:22.290Z,2.75
2022-11-24T07:13:58.127Z,3.50
2022-11-24T07:16:28.429Z,4.00
2022-11-24T07:18:57.835Z,3.00
2022-11-24T07:21:27.608Z,4.00
2022-11-24T07:23:58.114Z,2.25
2022-11-24T07:26:27.019Z,3.00
2022-11-24T07:28:55.451Z,2.50
2022-11-24T07:31:27.554Z,3.75
2022-11-24T07:33:56.949Z,3.00
2022-11-24T07:36:27.100Z,3.25
2022-11-24T07:38:55.414Z,3.50
2022-11-24T07:41:23.818Z,3.00
2022-11-24T07:43:52.633Z,2.50
2022-11-24T07:46:21.664Z,3.00
2022-11-24T07:48:50.080Z,2.75
2022-11-24T07:51:18.481Z,3.00
2022-11-24T07:53:47.372Z,3.25
2022-11-24T07:56:15.830Z,4.00
2022-11-24T07:58:48.353Z,3.00
2022-11-24T08:01:21.342Z,4.00
2022-11-24T08:03:49.765Z,3.50
2022-11-24T08:06:26.043Z,2.25
2022-11-24T08:08:57.870Z,2.75
2022-11-24T08:11:26.914Z,3.00
2022-11-24T08:13:55.386Z,5.00
2022-11-24T08:16:24.121Z,3.25
2022-11-24T08:18:54.515Z,2.00
2022-11-24T08:21:24.174Z,2.75
2022-11-24T08:23:59.577Z,3.00
2022-11-24T08:26:28.275Z,3.00
2022-11-24T08:28:59.445Z,5.00
2022-11-24T08:31:34.420Z,4.00
2022-11-24T08:34:04.579Z,3.25
2022-11-24T08:36:33.648Z,2.75
2022-11-24T08:39:02.732Z,3.00
2022-11-24T08:41:31.821Z,3.00
2022-11-24T08:44:00.347Z,3.00
2022-11-24T08:46:28.760Z,3.00
2022-11-24T08:48:57.485Z,3.75
2022-11-24T08:51:27.999Z,3.00
2022-11-24T08:53:59.046Z,3.00
2022-11-24T08:56:29.071Z,3.50
2022-11-24T08:58:58.451Z,3.25
2022-11-24T09:01:27.936Z,3.00
2022-11-24T09:03:56.726Z,2.75
2022-11-24T09:06:28.674Z,4.75
2022-11-24T09:08:57.417Z,3.00
2022-11-24T09:11:27.021Z,4.50
2022-11-24T09:13:56.539Z,3.50
2022-11-24T09:16:27.943Z,5.00
2022-11-24T09:19:01.332Z,3.50
2022-11-24T09:21:30.913Z,3.50
2022-11-24T09:23:59.305Z,3.00
2022-11-24T09:26:30.647Z,5.00
2022-11-24T09:29:00.627Z,3.75
2022-11-24T09:31:35.344Z,5.75
2022-11-24T09:34:12.595Z,4.00
2022-11-24T09:36:41.303Z,4.75
2022-11-24T09:39:09.655Z,3.25
2022-11-24T09:42:15.374Z,4.00
2022-11-24T09:45:03.988Z,3.50
2022-11-24T09:47:55.527Z,4.00
2022-11-24T09:50:35.330Z,4.50
2022-11-24T09:53:09.799Z,4.50
2022-11-24T09:55:46.873Z,3.50
2022-11-24T09:58:40.187Z,4.25
2022-11-24T10:01:19.257Z,4.00
2022-11-24T10:03:52.642Z,3.50
2022-11-24T10:06:24.327Z,4.50
2022-11-24T10:09:37.708Z,4.00
2022-11-24T10:12:24.538Z,5.00
2022-11-24T10:15:23.539Z,5.00
2022-11-24T10:18:16.752Z,3.25
2022-11-24T10:21:09.569Z,3.25
2022-11-24T10:23:46.799Z,6.00
2022-11-24T10:26:27.910Z,5.00
2022-11-24T10:28:57.884Z,4.75
2022-11-24T10:31:37.020Z,4.75
2022-11-24T10:34:15.131Z,4.25
2022-11-24T10:36:56.766Z,4.50
2022-11-24T10:39:42.932Z,4.75
2022-11-24T10:42:25.508Z,3.00
2022-11-24T10:45:16.093Z,3.75
2022-11-24T10:47:45.873Z,4.50
2022-11-24T10:50:28.621Z,4.00
2022-11-24T10:53:17.685Z,3.75
2022-11-24T10:55:58.162Z,4.00
2022-11-24T10:58:38.738Z,4.75
2022-11-24T11:01:16.449Z,5.25
2022-11-24T11:03:49.463Z,3.75
2022-11-24T11:06:23.025Z,5.00
2022-11-24T11:08:51.756Z,4.75
2022-11-24T11:11:28.875Z,5.25
2022-11-24T11:14:03.464Z,4.50
2022-11-24T11:16:44.625Z,4.75
2022-11-24T11:19:58.441Z,6.25
2022-11-24T11:22:27.239Z,5.25
2022-11-24T11:25:14.150Z,6.00
2022-11-24T11:27:43.287Z,6.50
2022-11-24T11:36:15.884Z,5.75
2022-11-24T11:38:46.527Z,7.00
2022-11-24T11:41:27.408Z,5.00
2022-11-24T11:44:23.173Z,5.25
2022-11-24T11:46:51.601Z,6.50
2022-11-24T11:49:20.023Z,6.00
2022-11-24T11:52:10.274Z,7.00
2022-11-24T11:54:50.273Z,7.75
2022-11-24T11:57:24.084Z,7.50
2022-11-24T12:00:15.601Z,9.50
2022-11-24T12:03:00.663Z,8.50
2022-11-24T12:05:53.394Z,6.50
2022-11-24T12:12:06.865Z,6.25
2022-11-24T12:14:53.739Z,10.50
2022-11-24T12:17:22.061Z,12.50
2022-11-24T12:19:56.371Z,11.25
2022-11-24T12:22:43.215Z,10.50
2022-11-24T12:25:37.636Z,9.75
2022-11-24T12:28:33.746Z,10.75
2022-11-24T12:31:09.483Z,11.75
2022-11-24T12:34:10.886Z,9.75
2022-11-24T12:36:54.202Z,9.50
2022-11-24T12:39:53.409Z,10.50
2022-11-24T12:42:57.675Z,11.00
2022-11-24T12:45:39.653Z,10.00
2022-11-24T12:48:36.969Z,10.00
2022-11-24T12:51:11.181Z,10.00
2022-11-24T12:53:41.207Z,10.50
2022-11-24T12:56:13.530Z,10.00
2022-11-24T12:58:52.148Z,11.25
2022-11-24T13:01:23.603Z,10.75
2022-11-24T13:04:21.739Z,10.00
2022-11-24T13:07:10.524Z,9.75
2022-11-24T13:09:39.311Z,10.25
2022-11-24T13:12:15.627Z,10.25
2022-11-24T13:14:51.098Z,8.25
2022-11-24T13:17:43.537Z,9.75
2022-11-24T13:20:21.757Z,9.00
2022-11-24T13:23:02.674Z,8.50
2022-11-24T13:25:36.129Z,10.25
2022-11-24T13:28:07.437Z,9.75
2022-11-24T13:30:35.804Z,8.50
2022-11-24T13:33:16.546Z,7.50
2022-11-24T13:36:03.807Z,8.25
2022-11-24T13:38:47.462Z,9.50
2022-11-24T13:41:34.246Z,7.75
2022-11-24T13:44:25.877Z,10.00
2022-11-24T13:47:24.125Z,10.00
2022-11-24T13:49:53.279Z,8.50
2022-11-24T13:53:02.104Z,9.50
2022-11-24T13:55:37.252Z,10.00
2022-11-24T13:58:11.594Z,10.00
2022-11-24T14:01:12.522Z,10.25
2022-11-24T14:03:42.481Z,9.00
2022-11-24T14:06:23.054Z,11.00
2022-11-24T14:08:51.518Z,11.50
2022-11-24T14:11:20.101Z,10.25
2022-11-24T14:13:48.455Z,11.00
2022-11-24T14:16:23.005Z,9.75
2022-11-24T14:18:54.309Z,9.00
2022-11-24T14:21:25.591Z,9.00
2022-11-24T14:24:24.569Z,8.00
2022-11-24T14:26:53.243Z,9.00
2022-11-24T14:29:24.200Z,8.50
2022-11-24T14:31:57.788Z,10.00
2022-11-24T14:34:29.085Z,8.00
2022-11-24T14:36:59.044Z,8.00
2022-11-24T14:39:28.798Z,9.25
2022-11-24T14:42:17.352Z,6.25
2022-11-24T14:45:00.250Z,8.00
2022-11-24T14:47:38.645Z,7.50
2022-11-24T14:50:09.388Z,12.25
2022-11-24T14:52:44.593Z,9.00
2022-11-24T14:55:32.781Z,10.25
2022-11-24T14:58:03.798Z,8.75
2022-11-24T15:00:34.597Z,9.00
2022-11-24T15:03:02.923Z,10.25
2022-11-24T15:05:56.973Z,9.00
2022-11-24T15:08:29.945Z,8.75
2022-11-24T15:11:05.024Z,8.00
2022-11-24T15:13:40.737Z,8.50
2022-11-24T15:16:20.127Z,7.75
2022-11-24T15:18:56.253Z,8.00
2022-11-24T15:21:35.812Z,8.75
2022-11-24T15:24:18.849Z,7.50
2022-11-24T15:26:47.914Z,7.00
2022-11-24T15:29:16.792Z,5.75
2022-11-24T15:31:49.389Z,7.75
2022-11-24T15:34:21.403Z,8.00
2022-11-24T15:36:49.755Z,6.75
2022-11-24T15:39:18.111Z,8.25
2022-11-24T15:41:46.398Z,9.50
2022-11-24T15:44:14.737Z,8.75
2022-11-24T15:46:43.304Z,9.25
2022-11-24T15:49:11.636Z,7.00
2022-11-24T15:51:45.799Z,9.50
2022-11-24T15:54:19.808Z,7.00
2022-11-24T15:56:48.362Z,7.75
2022-11-24T15:59:20.524Z,7.50
2022-11-24T16:01:50.649Z,9.00
2022-11-24T16:04:19.131Z,8.00
2022-11-24T16:06:47.479Z,8.00
2022-11-24T16:09:18.108Z,6.50
2022-11-24T16:11:46.424Z,6.00
2022-11-24T16:14:14.914Z,9.00
2022-11-24T16:16:43.395Z,8.00
2022-11-24T16:19:13.174Z,8.25
2022-11-24T16:21:41.480Z,8.75
2022-11-24T16:24:09.941Z,7.25
2022-11-24T16:26:38.205Z,7.50
2022-11-24T16:29:06.641Z,6.75
2022-11-24T16:31:35.006Z,8.75
2022-11-24T16:34:03.369Z,8.50
2022-11-24T16:36:31.662Z,8.25
2022-11-24T16:39:01.516Z,7.00
2022-11-24T16:41:29.843Z,8.25
2022-11-24T16:43:58.446Z,7.00
2022-11-24T16:46:27.002Z,8.75
2022-11-24T16:49:00.578Z,7.00
2022-11-24T16:51:34.376Z,6.75
2022-11-24T16:54:04.703Z,6.00
2022-11-24T16:56:33.457Z,6.75
2022-11-24T16:59:02.263Z,5.00
2022-11-24T17:01:31.180Z,6.50
2022-11-24T17:04:00.089Z,7.00
2022-11-24T17:06:30.265Z,6.25
2022-11-24T17:08:58.645Z,6.50
2022-11-24T17:11:28.891Z,7.25
2022-11-24T17:14:00.275Z,6.75
2022-11-24T17:16:29.453Z,6.50
2022-11-24T17:18:59.591Z,7.00
2022-11-24T17:21:29.004Z,7.00
2022-11-24T17:24:02.287Z,9.00
2022-11-24T17:26:30.598Z,6.75
2022-11-24T17:28:59.227Z,5.25
2022-11-24T17:31:40.643Z,5.50
2022-11-24T17:34:09.282Z,7.25
2022-11-24T17:36:37.686Z,4.25
2022-11-24T17:39:08.138Z,5.25
2022-11-24T17:41:36.493Z,6.00
2022-11-24T17:44:05.728Z,6.25
2022-11-24T17:46:34.360Z,7.75
2022-11-24T17:49:02.675Z,6.25
2022-11-24T17:51:30.973Z,5.75
2022-11-24T17:53:59.407Z,6.00
2022-11-24T17:56:29.568Z,5.75
2022-11-24T17:59:00.198Z,6.00
2022-11-24T18:01:32.483Z,6.75
2022-11-24T18:04:01.014Z,7.00
2022-11-24T18:06:29.729Z,4.50
2022-11-24T18:08:59.381Z,5.50
2022-11-24T18:11:32.085Z,6.50
2022-11-24T18:14:03.821Z,5.50
2022-11-24T18:16:34.294Z,6.00
2022-11-24T18:19:09.056Z,5.00
2022-11-24T18:21:39.704Z,6.75
2022-11-24T18:24:09.955Z,6.00
2022-11-24T18:26:39.400Z,7.00
2022-11-24T18:29:08.782Z,6.25
2022-11-24T18:31:37.949Z,7.50
2022-11-24T18:34:07.480Z,5.00
2022-11-24T18:36:36.695Z,7.75
2022-11-24T18:39:07.309Z,5.75
2022-11-24T18:41:36.562Z,6.00
2022-11-24T18:44:08.750Z,8.00
2022-11-24T18:46:39.528Z,5.00
2022-11-24T18:49:08.399Z,6.25
2022-11-24T18:51:36.754Z,5.50
2022-11-24T18:54:06.287Z,6.00
2022-11-24T18:56:34.602Z,6.00
2022-11-24T18:59:02.996Z,4.50
2022-11-24T19:01:31.580Z,6.25
2022-11-24T19:04:02.671Z,7.00
2022-11-24T19:06:36.337Z,7.75
2022-11-24T19:09:12.537Z,8.00
2022-11-24T19:11:43.572Z,6.50
2022-11-24T19:14:18.384Z,7.25
2022-11-24T19:16:49.010Z,6.00
2022-11-24T19:19:18.002Z,5.75
2022-11-24T19:21:46.359Z,8.25
2022-11-24T19:24:14.712Z,7.50
2022-11-24T19:26:43.055Z,8.00
2022-11-24T19:29:11.521Z,8.75
2022-11-24T19:31:40.666Z,7.25
2022-11-24T19:34:09.187Z,5.75
2022-11-24T19:36:37.663Z,8.00
2022-11-24T19:39:06.194Z,6.75
2022-11-24T19:41:35.478Z,7.00
2022-11-24T19:44:03.853Z,8.25
2022-11-24T19:46:32.378Z,6.50
2022-11-24T19:49:02.368Z,9.00
2022-11-24T19:51:35.582Z,7.00
2022-11-24T19:54:05.273Z,7.00
2022-11-24T19:56:37.072Z,7.50
2022-11-24T19:59:07.184Z,7.50
2022-11-24T20:01:38.326Z,5.75
2022-11-24T20:04:09.632Z,9.50
2022-11-24T20:06:40.799Z,6.00
2022-11-24T20:09:14.149Z,9.00
2022-11-24T20:11:42.934Z,8.50
2022-11-24T20:14:15.943Z,7.75
2022-11-24T20:16:46.401Z,6.25
2022-11-24T20:19:16.741Z,6.25
2022-11-24T20:21:48.582Z,6.00
2022-11-24T20:24:22.338Z,6.75
2022-11-24T20:26:54.316Z,7.75
2022-11-24T20:29:22.680Z,8.00
2022-11-24T20:31:53.842Z,7.00
2022-11-24T20:34:23.201Z,7.50
2022-11-24T20:36:53.757Z,8.00
2022-11-24T20:39:26.320Z,9.00
2022-11-24T20:41:56.165Z,6.25
2022-11-24T20:44:26.874Z,5.50
2022-11-24T20:46:58.016Z,6.50
2022-11-24T20:49:27.327Z,8.25
2022-11-24T20:51:57.829Z,8.25
2022-11-24T20:54:26.243Z,8.50
2022-11-24T20:56:54.724Z,7.00
2022-11-24T20:59:25.408Z,8.75
2022-11-24T21:01:56.227Z,7.25
2022-11-24T21:04:27.215Z,6.00
2022-11-24T21:06:55.790Z,6.25
2022-11-24T21:09:25.622Z,9.00
2022-11-24T21:11:54.186Z,7.50
2022-11-24T21:14:22.469Z,6.25
2022-11-24T21:16:50.833Z,7.50
2022-11-24T21:19:19.447Z,7.75
2022-11-24T21:21:49.680Z,11.25
2022-11-24T21:24:22.445Z,8.00
2022-11-24T21:26:53.493Z,9.00
2022-11-24T21:29:24.279Z,9.25
2022-11-24T21:31:53.067Z,7.25
2022-11-24T21:34:21.506Z,8.50
2022-11-24T21:36:50.458Z,7.25
2022-11-24T21:39:19.471Z,10.00
2022-11-24T21:41:48.545Z,8.00
2022-11-24T21:44:17.023Z,8.00
2022-11-24T21:46:51.049Z,8.50
2022-11-24T21:49:22.739Z,8.50
2022-11-24T21:51:56.338Z,7.50
2022-11-24T21:54:25.033Z,8.00
2022-11-24T21:56:54.624Z,8.50
2022-11-24T21:59:23.438Z,7.50
2022-11-24T22:01:51.718Z,8.25
2022-11-24T22:04:20.065Z,8.00
2022-11-24T22:06:48.386Z,11.25
2022-11-24T22:09:18.404Z,11.50
2022-11-24T22:11:50.048Z,11.50
2022-11-24T22:14:18.381Z,12.25
2022-11-24T22:16:47.192Z,14.25
2022-11-24T22:19:15.705Z,15.00
2022-11-24T22:21:44.180Z,19.00
2022-11-24T22:24:12.848Z,19.75
2022-11-24T22:26:41.229Z,17.75
2022-11-24T22:29:09.705Z,16.50
2022-11-24T22:31:38.059Z,13.25
2022-11-24T22:34:06.451Z,15.00
2022-11-24T22:36:34.885Z,13.75
2022-11-24T22:39:06.237Z,13.50
2022-11-24T22:41:36.825Z,13.25
2022-11-24T22:44:06.403Z,13.25
2022-11-24T22:46:35.088Z,13.00
2022-11-24T22:49:03.602Z,13.50
2022-11-24T22:51:34.406Z,9.75
2022-11-24T22:54:05.051Z,9.75
2022-11-24T22:56:34.563Z,10.00
2022-11-24T22:59:05.494Z,10.00
2022-11-24T23:01:37.115Z,9.00
2022-11-24T23:04:05.595Z,9.75
2022-11-24T23:06:34.775Z,9.00
2022-11-24T23:09:04.567Z,9.50
2022-11-24T23:11:38.493Z,9.75
2022-11-24T23:14:09.690Z,8.75
2022-11-24T23:16:38.160Z,8.25
2022-11-24T23:19:06.911Z,5.75
2022-11-24T23:21:39.114Z,10.00
2022-11-24T23:24:08.248Z,8.50
2022-11-24T23:26:41.862Z,8.75
2022-11-24T23:29:11.937Z,11.00
2022-11-24T23:31:43.079Z,9.25
2022-11-24T23:34:11.766Z,8.50
2022-11-24T23:36:40.470Z,10.00
2022-11-24T23:39:12.563Z,7.50
2022-11-24T23:41:41.194Z,9.00
2022-11-24T23:44:09.651Z,7.50
2022-11-24T23:46:37.972Z,8.00
2022-11-24T23:49:06.268Z,10.00
2022-11-24T23:51:35.310Z,9.50
2022-11-24T23:54:03.686Z,10.00
2022-11-24T23:56:33.683Z,9.25
2022-11-24T23:59:04.260Z,8.75
